sensor_id;sensor_type;location;lat;lon;timestamp;pressure;altitude;pressure_sealevel;temperature;humidity
65897;BME280;52677;50.898;10.854;2022-07-05T00:00:41;98967.53;;;13.44;68.87
65897;BME280;52677;50.898;10.854;2022-07-05T00:02:41;98966.38;;;13.48;68.19
65897;BME280;52677;50.898;10.854;2022-07-05T00:04:42;98966.38;;;13.45;69.05
65897;BME280;52677;50.898;10.854;2022-07-05T00:06:43;98964.78;;;13.47;68.48
65897;BME280;52677;50.898;10.854;2022-07-05T00:09:02;98971.56;;;13.50;67.71
65897;BME280;52677;50.898;10.854;2022-07-05T00:11:03;98968.75;;;13.46;68.20
65897;BME280;52677;50.898;10.854;2022-07-05T00:13:04;98973.06;;;13.40;68.28
65897;BME280;52677;50.898;10.854;2022-07-05T00:15:05;98971.00;;;13.30;69.01
65897;BME280;52677;50.898;10.854;2022-07-05T00:17:06;98970.91;;;13.19;70.05
65897;BME280;52677;50.898;10.854;2022-07-05T00:19:06;98965.25;;;13.09;70.84
65897;BME280;52677;50.898;10.854;2022-07-05T00:21:07;98970.75;;;13.05;70.87
65897;BME280;52677;50.898;10.854;2022-07-05T00:23:07;98958.41;;;12.99;70.80
65897;BME280;52677;50.898;10.854;2022-07-05T00:25:08;98971.78;;;12.90;71.51
65897;BME280;52677;50.898;10.854;2022-07-05T00:27:08;98967.81;;;12.87;71.58
65897;BME280;52677;50.898;10.854;2022-07-05T00:29:08;98975.31;;;12.83;72.21
65897;BME280;52677;50.898;10.854;2022-07-05T00:31:09;98965.72;;;12.77;73.47
65897;BME280;52677;50.898;10.854;2022-07-05T00:33:09;98965.66;;;12.74;73.25
65897;BME280;52677;50.898;10.854;2022-07-05T00:35:09;98972.38;;;12.69;74.16
65897;BME280;52677;50.898;10.854;2022-07-05T00:37:10;98973.16;;;12.66;74.39
65897;BME280;52677;50.898;10.854;2022-07-05T00:39:11;98966.31;;;12.60;74.26
65897;BME280;52677;50.898;10.854;2022-07-05T00:41:11;98967.50;;;12.59;74.28
65897;BME280;52677;50.898;10.854;2022-07-05T00:43:11;98976.56;;;12.52;75.24
65897;BME280;52677;50.898;10.854;2022-07-05T00:45:12;98970.94;;;12.49;74.96
65897;BME280;52677;50.898;10.854;2022-07-05T00:47:12;98975.41;;;12.57;73.94
65897;BME280;52677;50.898;10.854;2022-07-05T00:49:13;98971.03;;;12.56;73.80
65897;BME280;52677;50.898;10.854;2022-07-05T00:51:14;98966.19;;;12.49;73.54
65897;BME280;52677;50.898;10.854;2022-07-05T00:53:14;98971.69;;;12.42;74.39
65897;BME280;52677;50.898;10.854;2022-07-05T00:55:15;98975.97;;;12.36;74.12
65897;BME280;52677;50.898;10.854;2022-07-05T00:57:16;98971.09;;;12.26;74.56
65897;BME280;52677;50.898;10.854;2022-07-05T00:59:18;98974.59;;;12.23;75.09
65897;BME280;52677;50.898;10.854;2022-07-05T01:01:18;98977.66;;;12.14;74.99
65897;BME280;52677;50.898;10.854;2022-07-05T01:03:19;98976.75;;;12.06;75.58
65897;BME280;52677;50.898;10.854;2022-07-05T01:05:21;98962.44;;;12.01;75.52
65897;BME280;52677;50.898;10.854;2022-07-05T01:07:22;98978.59;;;11.95;76.18
65897;BME280;52677;50.898;10.854;2022-07-05T01:09:23;98972.56;;;11.90;76.84
65897;BME280;52677;50.898;10.854;2022-07-05T01:11:24;98977.69;;;11.88;77.05
65897;BME280;52677;50.898;10.854;2022-07-05T01:13:25;98968.47;;;11.80;78.30
65897;BME280;52677;50.898;10.854;2022-07-05T01:15:26;98971.97;;;11.77;78.75
65897;BME280;52677;50.898;10.854;2022-07-05T01:17:27;98967.13;;;11.70;77.65
65897;BME280;52677;50.898;10.854;2022-07-05T01:19:27;98972.97;;;11.65;78.63
65897;BME280;52677;50.898;10.854;2022-07-05T01:21:28;98966.16;;;11.59;78.55
65897;BME280;52677;50.898;10.854;2022-07-05T01:23:31;98969.66;;;11.56;79.01
65897;BME280;52677;50.898;10.854;2022-07-05T01:25:31;98968.03;;;11.51;79.26
65897;BME280;52677;50.898;10.854;2022-07-05T01:27:32;98959.97;;;11.43;79.67
65897;BME280;52677;50.898;10.854;2022-07-05T01:29:32;98966.25;;;11.40;80.28
65897;BME280;52677;50.898;10.854;2022-07-05T01:31:33;98963.81;;;11.35;80.14
65897;BME280;52677;50.898;10.854;2022-07-05T01:33:36;98960.53;;;11.29;80.71
65897;BME280;52677;50.898;10.854;2022-07-05T01:35:36;98958.56;;;11.30;79.06
65897;BME280;52677;50.898;10.854;2022-07-05T01:37:38;98951.81;;;11.27;79.11
65897;BME280;52677;50.898;10.854;2022-07-05T01:39:38;98957.34;;;11.27;78.98
65897;BME280;52677;50.898;10.854;2022-07-05T01:41:39;98960.50;;;11.25;79.38
65897;BME280;52677;50.898;10.854;2022-07-05T01:43:39;98961.66;;;11.24;79.05
65897;BME280;52677;50.898;10.854;2022-07-05T01:45:40;98962.69;;;11.16;79.90
65897;BME280;52677;50.898;10.854;2022-07-05T01:47:43;98956.22;;;11.09;81.15
65897;BME280;52677;50.898;10.854;2022-07-05T01:49:50;98960.25;;;11.11;79.77
65897;BME280;52677;50.898;10.854;2022-07-05T01:51:55;98956.59;;;11.07;80.04
65897;BME280;52677;50.898;10.854;2022-07-05T01:53:58;98956.72;;;11.14;78.44
65897;BME280;52677;50.898;10.854;2022-07-05T01:56:02;98952.25;;;11.06;78.90
65897;BME280;52677;50.898;10.854;2022-07-05T01:58:03;98947.50;;;11.07;79.32
65897;BME280;52677;50.898;10.854;2022-07-05T02:00:04;98952.56;;;11.01;78.62
65897;BME280;52677;50.898;10.854;2022-07-05T02:02:05;98953.28;;;10.98;80.02
65897;BME280;52677;50.898;10.854;2022-07-05T02:04:09;98954.75;;;10.92;80.22
65897;BME280;52677;50.898;10.854;2022-07-05T02:06:09;98953.16;;;10.91;78.76
65897;BME280;52677;50.898;10.854;2022-07-05T02:08:11;98960.88;;;11.01;78.45
65897;BME280;52677;50.898;10.854;2022-07-05T02:10:11;98952.88;;;10.96;79.08
65897;BME280;52677;50.898;10.854;2022-07-05T02:12:12;98955.47;;;10.85;78.92
65897;BME280;52677;50.898;10.854;2022-07-05T02:14:12;98960.84;;;10.78;80.06
65897;BME280;52677;50.898;10.854;2022-07-05T02:16:13;98960.72;;;10.71;80.12
65897;BME280;52677;50.898;10.854;2022-07-05T02:18:13;98956.66;;;10.65;81.03
65897;BME280;52677;50.898;10.854;2022-07-05T02:20:13;98959.03;;;10.66;81.02
65897;BME280;52677;50.898;10.854;2022-07-05T02:22:14;98961.00;;;10.66;80.90
65897;BME280;52677;50.898;10.854;2022-07-05T02:24:14;98952.72;;;10.66;80.67
65897;BME280;52677;50.898;10.854;2022-07-05T02:26:14;98950.75;;;10.66;80.02
65897;BME280;52677;50.898;10.854;2022-07-05T02:28:15;98964.16;;;10.64;80.98
65897;BME280;52677;50.898;10.854;2022-07-05T02:30:16;98960.88;;;10.59;81.42
65897;BME280;52677;50.898;10.854;2022-07-05T02:32:16;98970.19;;;10.51;82.43
65897;BME280;52677;50.898;10.854;2022-07-05T02:34:16;98965.34;;;10.44;84.46
65897;BME280;52677;50.898;10.854;2022-07-05T02:36:17;98966.44;;;10.39;84.29
65897;BME280;52677;50.898;10.854;2022-07-05T02:38:17;98967.19;;;10.36;84.97
65897;BME280;52677;50.898;10.854;2022-07-05T02:40:17;98967.88;;;10.33;84.61
65897;BME280;52677;50.898;10.854;2022-07-05T02:42:18;98965.56;;;10.35;82.40
65897;BME280;52677;50.898;10.854;2022-07-05T02:44:18;98970.00;;;10.40;82.28
65897;BME280;52677;50.898;10.854;2022-07-05T02:46:18;98968.34;;;10.35;82.17
65897;BME280;52677;50.898;10.854;2022-07-05T02:48:19;98964.25;;;10.29;83.19
65897;BME280;52677;50.898;10.854;2022-07-05T02:50:19;98974.81;;;10.24;83.11
65897;BME280;52677;50.898;10.854;2022-07-05T02:52:20;98981.03;;;10.21;82.60
65897;BME280;52677;50.898;10.854;2022-07-05T02:54:20;98984.97;;;10.20;82.35
65897;BME280;52677;50.898;10.854;2022-07-05T02:56:20;98979.66;;;10.11;83.10
65897;BME280;52677;50.898;10.854;2022-07-05T02:58:21;98980.38;;;10.08;85.01
65897;BME280;52677;50.898;10.854;2022-07-05T03:00:21;98981.91;;;10.05;84.16
65897;BME280;52677;50.898;10.854;2022-07-05T03:02:22;98973.34;;;10.10;82.18
65897;BME280;52677;50.898;10.854;2022-07-05T03:04:23;98980.38;;;10.08;82.60
65897;BME280;52677;50.898;10.854;2022-07-05T03:06:23;98973.53;;;10.02;83.25
65897;BME280;52677;50.898;10.854;2022-07-05T03:08:23;98984.28;;;10.07;82.25
65897;BME280;52677;50.898;10.854;2022-07-05T03:10:24;98987.00;;;10.03;84.46
65897;BME280;52677;50.898;10.854;2022-07-05T03:12:25;98979.41;;;10.00;85.72
65897;BME280;52677;50.898;10.854;2022-07-05T03:14:25;98978.59;;;10.00;84.40
65897;BME280;52677;50.898;10.854;2022-07-05T03:16:26;98977.75;;;9.96;85.42
65897;BME280;52677;50.898;10.854;2022-07-05T03:18:26;98972.91;;;9.93;85.06
65897;BME280;52677;50.898;10.854;2022-07-05T03:20:27;98973.44;;;9.98;83.64
65897;BME280;52677;50.898;10.854;2022-07-05T03:22:27;98977.53;;;10.04;82.11
65897;BME280;52677;50.898;10.854;2022-07-05T03:24:27;98985.91;;;10.08;82.73
65897;BME280;52677;50.898;10.854;2022-07-05T03:26:28;98986.25;;;10.06;82.76
65897;BME280;52677;50.898;10.854;2022-07-05T03:28:28;98977.44;;;10.01;83.72
65897;BME280;52677;50.898;10.854;2022-07-05T03:30:28;98995.13;;;9.96;83.81
65897;BME280;52677;50.898;10.854;2022-07-05T03:32:29;98991.63;;;9.99;83.25
65897;BME280;52677;50.898;10.854;2022-07-05T03:34:29;98989.41;;;10.05;81.90
65897;BME280;52677;50.898;10.854;2022-07-05T03:36:29;98977.25;;;10.09;81.34
65897;BME280;52677;50.898;10.854;2022-07-05T03:38:30;98979.63;;;10.27;80.36
65897;BME280;52677;50.898;10.854;2022-07-05T03:40:30;98980.25;;;10.39;79.60
65897;BME280;52677;50.898;10.854;2022-07-05T03:42:31;98988.44;;;10.52;81.77
65897;BME280;52677;50.898;10.854;2022-07-05T03:44:32;98990.81;;;10.53;80.58
65897;BME280;52677;50.898;10.854;2022-07-05T03:46:32;98988.78;;;10.50;80.22
65897;BME280;52677;50.898;10.854;2022-07-05T03:48:33;98993.25;;;10.35;82.94
65897;BME280;52677;50.898;10.854;2022-07-05T03:50:33;98996.66;;;10.29;82.37
65897;BME280;52677;50.898;10.854;2022-07-05T03:52:34;98992.28;;;10.28;81.26
65897;BME280;52677;50.898;10.854;2022-07-05T03:54:34;99004.84;;;10.25;82.63
65897;BME280;52677;50.898;10.854;2022-07-05T03:56:34;98999.59;;;10.20;83.53
65897;BME280;52677;50.898;10.854;2022-07-05T03:58:35;98995.34;;;10.23;81.74
65897;BME280;52677;50.898;10.854;2022-07-05T04:00:35;98996.94;;;10.24;82.79
65897;BME280;52677;50.898;10.854;2022-07-05T04:02:36;99002.47;;;10.24;83.26
65897;BME280;52677;50.898;10.854;2022-07-05T04:04:36;98989.34;;;10.21;84.74
65897;BME280;52677;50.898;10.854;2022-07-05T04:06:36;99008.50;;;10.29;83.29
65897;BME280;52677;50.898;10.854;2022-07-05T04:08:37;99008.16;;;10.31;83.62
65897;BME280;52677;50.898;10.854;2022-07-05T04:10:37;99004.31;;;10.35;84.37
65897;BME280;52677;50.898;10.854;2022-07-05T04:12:38;99002.81;;;10.41;83.36
65897;BME280;52677;50.898;10.854;2022-07-05T04:14:38;99001.09;;;10.53;81.81
65897;BME280;52677;50.898;10.854;2022-07-05T04:16:38;99008.44;;;10.64;82.83
65897;BME280;52677;50.898;10.854;2022-07-05T04:18:39;99013.25;;;10.67;83.37
65897;BME280;52677;50.898;10.854;2022-07-05T04:20:39;99013.03;;;10.76;82.09
65897;BME280;52677;50.898;10.854;2022-07-05T04:22:39;99013.06;;;10.80;81.78
65897;BME280;52677;50.898;10.854;2022-07-05T04:24:40;99007.53;;;10.80;81.63
65897;BME280;52677;50.898;10.854;2022-07-05T04:26:59;99013.63;;;10.89;80.77
65897;BME280;52677;50.898;10.854;2022-07-05T04:28:59;99018.88;;;10.94;81.03
65897;BME280;52677;50.898;10.854;2022-07-05T04:30:59;99009.91;;;11.01;81.54
65897;BME280;52677;50.898;10.854;2022-07-05T04:33:00;99016.34;;;11.08;82.49
65897;BME280;52677;50.898;10.854;2022-07-05T04:35:00;99007.75;;;11.13;81.28
65897;BME280;52677;50.898;10.854;2022-07-05T04:37:00;99022.66;;;11.28;79.56
65897;BME280;52677;50.898;10.854;2022-07-05T04:39:01;99008.97;;;11.39;78.32
65897;BME280;52677;50.898;10.854;2022-07-05T04:41:01;99021.03;;;11.50;78.80
65897;BME280;52677;50.898;10.854;2022-07-05T04:43:01;99016.06;;;11.59;79.01
65897;BME280;52677;50.898;10.854;2022-07-05T04:45:02;99019.78;;;11.70;79.83
65897;BME280;52677;50.898;10.854;2022-07-05T04:47:03;99016.41;;;11.80;78.61
65897;BME280;52677;50.898;10.854;2022-07-05T04:49:04;99017.78;;;11.94;77.98
65897;BME280;52677;50.898;10.854;2022-07-05T04:51:04;99018.31;;;12.03;78.01
65897;BME280;52677;50.898;10.854;2022-07-05T04:53:05;99026.41;;;12.15;77.61
65897;BME280;52677;50.898;10.854;2022-07-05T04:55:05;99027.38;;;12.26;77.59
65897;BME280;52677;50.898;10.854;2022-07-05T04:57:06;99028.72;;;12.40;76.88
65897;BME280;52677;50.898;10.854;2022-07-05T04:59:06;99036.03;;;12.55;74.96
65897;BME280;52677;50.898;10.854;2022-07-05T05:01:07;99037.41;;;12.68;75.68
65897;BME280;52677;50.898;10.854;2022-07-05T05:03:07;99034.34;;;12.77;75.67
65897;BME280;52677;50.898;10.854;2022-07-05T05:05:08;99033.28;;;12.88;75.90
65897;BME280;52677;50.898;10.854;2022-07-05T05:07:09;99036.53;;;12.98;75.87
65897;BME280;52677;50.898;10.854;2022-07-05T05:09:09;99027.50;;;13.04;76.34
65897;BME280;52677;50.898;10.854;2022-07-05T05:11:09;99042.25;;;13.12;75.75
65897;BME280;52677;50.898;10.854;2022-07-05T05:13:10;99045.94;;;13.19;74.73
65897;BME280;52677;50.898;10.854;2022-07-05T05:15:10;99040.09;;;13.32;74.42
65897;BME280;52677;50.898;10.854;2022-07-05T05:17:11;99049.28;;;13.39;73.99
65897;BME280;52677;50.898;10.854;2022-07-05T05:19:11;99041.00;;;13.43;73.83
65897;BME280;52677;50.898;10.854;2022-07-05T05:21:11;99032.72;;;13.50;72.80
65897;BME280;52677;50.898;10.854;2022-07-05T05:23:12;99042.34;;;13.60;72.49
65897;BME280;52677;50.898;10.854;2022-07-05T05:25:13;99045.97;;;13.67;72.90
65897;BME280;52677;50.898;10.854;2022-07-05T05:27:14;99048.38;;;13.72;72.66
65897;BME280;52677;50.898;10.854;2022-07-05T05:29:14;99039.72;;;13.81;73.50
65897;BME280;52677;50.898;10.854;2022-07-05T05:31:14;99040.94;;;13.87;73.06
65897;BME280;52677;50.898;10.854;2022-07-05T05:33:15;99055.75;;;13.98;72.42
65897;BME280;52677;50.898;10.854;2022-07-05T05:35:15;99049.03;;;14.06;71.88
65897;BME280;52677;50.898;10.854;2022-07-05T05:37:20;99047.88;;;14.08;72.69
65897;BME280;52677;50.898;10.854;2022-07-05T05:39:21;99049.03;;;14.06;72.63
65897;BME280;52677;50.898;10.854;2022-07-05T05:41:21;99045.94;;;14.19;71.42
65897;BME280;52677;50.898;10.854;2022-07-05T05:43:21;99053.50;;;14.22;71.72
65897;BME280;52677;50.898;10.854;2022-07-05T05:45:22;99054.28;;;14.22;72.38
65897;BME280;52677;50.898;10.854;2022-07-05T05:47:23;99059.09;;;14.25;71.44
65897;BME280;52677;50.898;10.854;2022-07-05T05:49:23;99050.31;;;14.20;72.47
65897;BME280;52677;50.898;10.854;2022-07-05T05:51:23;99059.84;;;14.15;72.47
65897;BME280;52677;50.898;10.854;2022-07-05T05:53:24;99053.03;;;14.09;72.66
65897;BME280;52677;50.898;10.854;2022-07-05T05:55:26;99059.00;;;14.08;72.58
65897;BME280;52677;50.898;10.854;2022-07-05T05:57:26;99065.06;;;14.24;72.30
65897;BME280;52677;50.898;10.854;2022-07-05T05:59:27;99066.66;;;14.28;72.18
65897;BME280;52677;50.898;10.854;2022-07-05T06:01:27;99065.91;;;14.39;71.96
65897;BME280;52677;50.898;10.854;2022-07-05T06:03:27;99066.81;;;14.50;72.23
65897;BME280;52677;50.898;10.854;2022-07-05T06:05:28;99060.53;;;14.67;71.60
65897;BME280;52677;50.898;10.854;2022-07-05T06:07:28;99075.69;;;14.80;72.44
65897;BME280;52677;50.898;10.854;2022-07-05T06:09:29;99076.16;;;14.89;71.23
65897;BME280;52677;50.898;10.854;2022-07-05T06:11:29;99073.38;;;14.97;70.55
65897;BME280;52677;50.898;10.854;2022-07-05T06:13:30;99078.22;;;15.17;71.23
65897;BME280;52677;50.898;10.854;2022-07-05T06:15:31;99072.31;;;15.44;70.60
65897;BME280;52677;50.898;10.854;2022-07-05T06:17:36;99077.09;;;15.43;69.70
65897;BME280;52677;50.898;10.854;2022-07-05T06:19:36;99077.50;;;15.49;69.80
65897;BME280;52677;50.898;10.854;2022-07-05T06:21:37;99067.53;;;15.52;69.01
65897;BME280;52677;50.898;10.854;2022-07-05T06:23:37;99066.75;;;15.62;69.04
65897;BME280;52677;50.898;10.854;2022-07-05T06:25:37;99073.56;;;15.75;69.19
65897;BME280;52677;50.898;10.854;2022-07-05T06:27:42;99073.94;;;15.77;69.50
65897;BME280;52677;50.898;10.854;2022-07-05T06:29:43;99080.72;;;15.87;68.39
65897;BME280;52677;50.898;10.854;2022-07-05T06:31:43;99077.13;;;15.97;68.29
65897;BME280;52677;50.898;10.854;2022-07-05T06:33:44;99073.16;;;15.91;68.50
65897;BME280;52677;50.898;10.854;2022-07-05T06:35:44;99081.50;;;16.16;68.73
65897;BME280;52677;50.898;10.854;2022-07-05T06:37:57;99077.09;;;16.18;67.72
65897;BME280;52677;50.898;10.854;2022-07-05T06:39:57;99082.28;;;16.20;67.25
65897;BME280;52677;50.898;10.854;2022-07-05T06:41:58;99080.28;;;16.20;67.22
65897;BME280;52677;50.898;10.854;2022-07-05T06:43:58;99083.06;;;16.35;67.59
65897;BME280;52677;50.898;10.854;2022-07-05T06:45:59;99077.84;;;16.51;65.90
65897;BME280;52677;50.898;10.854;2022-07-05T06:48:04;99081.44;;;16.55;64.91
65897;BME280;52677;50.898;10.854;2022-07-05T06:50:06;99068.63;;;16.65;63.64
65897;BME280;52677;50.898;10.854;2022-07-05T06:52:06;99076.56;;;16.84;64.22
65897;BME280;52677;50.898;10.854;2022-07-05T06:54:07;99074.97;;;16.79;64.27
65897;BME280;52677;50.898;10.854;2022-07-05T06:56:07;99074.94;;;16.87;62.70
65897;BME280;52677;50.898;10.854;2022-07-05T06:58:08;99068.56;;;16.86;62.85
65897;BME280;52677;50.898;10.854;2022-07-05T07:00:09;99072.50;;;16.96;61.62
65897;BME280;52677;50.898;10.854;2022-07-05T07:02:10;99074.03;;;17.11;60.00
65897;BME280;52677;50.898;10.854;2022-07-05T07:04:10;99072.00;;;17.22;60.26
65897;BME280;52677;50.898;10.854;2022-07-05T07:06:11;99064.81;;;17.21;59.02
65897;BME280;52677;50.898;10.854;2022-07-05T07:08:11;99063.50;;;17.36;59.09
65897;BME280;52677;50.898;10.854;2022-07-05T07:10:30;99065.03;;;17.48;58.80
65897;BME280;52677;50.898;10.854;2022-07-05T07:12:30;99066.94;;;17.58;59.62
65897;BME280;52677;50.898;10.854;2022-07-05T07:14:30;99066.53;;;17.63;58.22
65897;BME280;52677;50.898;10.854;2022-07-05T07:16:31;99075.72;;;17.60;58.83
65897;BME280;52677;50.898;10.854;2022-07-05T07:18:31;99061.25;;;17.69;59.07
65897;BME280;52677;50.898;10.854;2022-07-05T07:20:32;99066.81;;;17.80;60.16
65897;BME280;52677;50.898;10.854;2022-07-05T07:22:33;99072.31;;;17.90;58.50
65897;BME280;52677;50.898;10.854;2022-07-05T07:24:33;99067.00;;;18.03;58.80
65897;BME280;52677;50.898;10.854;2022-07-05T07:26:33;99074.47;;;18.17;57.34
65897;BME280;52677;50.898;10.854;2022-07-05T07:28:54;99072.75;;;18.30;57.04
65897;BME280;52677;50.898;10.854;2022-07-05T07:30:54;99070.25;;;18.39;56.08
65897;BME280;52677;50.898;10.854;2022-07-05T07:32:55;99083.78;;;18.48;55.67
65897;BME280;52677;50.898;10.854;2022-07-05T07:34:55;99072.00;;;18.64;56.31
65897;BME280;52677;50.898;10.854;2022-07-05T07:36:56;99064.25;;;18.78;55.55
65897;BME280;52677;50.898;10.854;2022-07-05T07:38:57;99076.19;;;18.83;54.45
65897;BME280;52677;50.898;10.854;2022-07-05T07:40:57;99068.84;;;18.96;54.41
65897;BME280;52677;50.898;10.854;2022-07-05T07:42:58;99071.91;;;19.05;54.47
65897;BME280;52677;50.898;10.854;2022-07-05T07:44:58;99061.88;;;19.07;53.88
65897;BME280;52677;50.898;10.854;2022-07-05T07:46:59;99065.44;;;19.12;53.51
65897;BME280;52677;50.898;10.854;2022-07-05T07:48:59;99066.91;;;19.20;53.78
65897;BME280;52677;50.898;10.854;2022-07-05T07:51:00;99073.63;;;19.26;52.15
65897;BME280;52677;50.898;10.854;2022-07-05T07:53:00;99069.03;;;19.39;52.19
65897;BME280;52677;50.898;10.854;2022-07-05T07:55:01;99075.63;;;19.52;51.25
65897;BME280;52677;50.898;10.854;2022-07-05T07:57:01;99070.09;;;19.49;49.50
65897;BME280;52677;50.898;10.854;2022-07-05T07:59:04;99072.75;;;19.59;50.12
65897;BME280;52677;50.898;10.854;2022-07-05T08:01:05;99077.47;;;19.66;50.10
65897;BME280;52677;50.898;10.854;2022-07-05T08:03:11;99066.22;;;19.70;49.46
65897;BME280;52677;50.898;10.854;2022-07-05T08:05:12;99066.56;;;19.72;50.27
65897;BME280;52677;50.898;10.854;2022-07-05T08:07:12;99072.34;;;19.84;49.24
65897;BME280;52677;50.898;10.854;2022-07-05T08:09:13;99072.59;;;19.93;48.57
65897;BME280;52677;50.898;10.854;2022-07-05T08:11:15;99064.38;;;20.06;47.84
65897;BME280;52677;50.898;10.854;2022-07-05T08:13:15;99072.19;;;20.18;49.06
65897;BME280;52677;50.898;10.854;2022-07-05T08:15:16;99069.81;;;20.17;47.90
65897;BME280;52677;50.898;10.854;2022-07-05T08:17:16;99071.63;;;20.27;47.67
65897;BME280;52677;50.898;10.854;2022-07-05T08:19:18;99066.31;;;20.33;46.06
65897;BME280;52677;50.898;10.854;2022-07-05T08:21:37;99070.03;;;20.26;46.98
65897;BME280;52677;50.898;10.854;2022-07-05T08:23:38;99067.41;;;20.39;46.92
65897;BME280;52677;50.898;10.854;2022-07-05T08:25:38;99071.22;;;20.52;47.64
65897;BME280;52677;50.898;10.854;2022-07-05T08:27:39;99066.59;;;20.62;48.38
65897;BME280;52677;50.898;10.854;2022-07-05T08:29:39;99061.84;;;20.79;46.45
65897;BME280;52677;50.898;10.854;2022-07-05T08:31:46;99054.56;;;20.81;45.21
65897;BME280;52677;50.898;10.854;2022-07-05T08:33:46;99052.88;;;20.84;46.07
65897;BME280;52677;50.898;10.854;2022-07-05T08:35:47;99058.00;;;20.89;43.73
65897;BME280;52677;50.898;10.854;2022-07-05T08:37:48;99045.53;;;20.90;42.47
65897;BME280;52677;50.898;10.854;2022-07-05T08:39:48;99047.47;;;20.93;43.87
65897;BME280;52677;50.898;10.854;2022-07-05T08:41:50;99048.41;;;21.06;43.76
65897;BME280;52677;50.898;10.854;2022-07-05T08:43:51;99050.13;;;21.00;42.35
65897;BME280;52677;50.898;10.854;2022-07-05T08:45:56;99058.78;;;21.09;43.76
65897;BME280;52677;50.898;10.854;2022-07-05T08:47:58;99053.78;;;21.17;43.29
65897;BME280;52677;50.898;10.854;2022-07-05T08:50:01;99052.84;;;21.23;43.75
65897;BME280;52677;50.898;10.854;2022-07-05T08:52:02;99041.13;;;21.25;43.18
65897;BME280;52677;50.898;10.854;2022-07-05T08:54:04;99044.97;;;21.35;42.63
65897;BME280;52677;50.898;10.854;2022-07-05T08:56:07;99041.59;;;21.23;42.75
65897;BME280;52677;50.898;10.854;2022-07-05T08:58:07;99046.47;;;21.39;43.33
65897;BME280;52677;50.898;10.854;2022-07-05T09:00:08;99039.88;;;21.29;42.00
65897;BME280;52677;50.898;10.854;2022-07-05T09:02:11;99040.56;;;21.34;42.22
65897;BME280;52677;50.898;10.854;2022-07-05T09:04:13;99031.53;;;21.42;42.41
65897;BME280;52677;50.898;10.854;2022-07-05T09:06:18;99026.34;;;21.41;42.01
65897;BME280;52677;50.898;10.854;2022-07-05T09:08:19;99037.44;;;21.48;42.65
65897;BME280;52677;50.898;10.854;2022-07-05T09:10:21;99031.91;;;21.61;41.70
65897;BME280;52677;50.898;10.854;2022-07-05T09:12:23;99039.38;;;21.67;41.52
65897;BME280;52677;50.898;10.854;2022-07-05T09:14:24;99038.75;;;21.76;41.25
65897;BME280;52677;50.898;10.854;2022-07-05T09:16:25;99036.56;;;21.83;41.63
65897;BME280;52677;50.898;10.854;2022-07-05T09:18:50;99034.44;;;21.55;41.26
65897;BME280;52677;50.898;10.854;2022-07-05T09:20:51;99034.19;;;21.66;41.63
65897;BME280;52677;50.898;10.854;2022-07-05T09:23:11;99029.88;;;21.61;42.25
65897;BME280;52677;50.898;10.854;2022-07-05T09:25:25;99036.13;;;21.85;41.52
65897;BME280;52677;50.898;10.854;2022-07-05T09:27:27;99028.66;;;21.95;40.88
65897;BME280;52677;50.898;10.854;2022-07-05T09:29:28;99027.75;;;21.98;40.86
65897;BME280;52677;50.898;10.854;2022-07-05T09:31:33;99023.81;;;21.95;40.51
65897;BME280;52677;50.898;10.854;2022-07-05T09:33:36;99023.00;;;22.11;39.31
65897;BME280;52677;50.898;10.854;2022-07-05T09:35:53;99027.28;;;22.32;39.58
65897;BME280;52677;50.898;10.854;2022-07-05T09:38:02;99033.91;;;22.54;38.67
65897;BME280;52677;50.898;10.854;2022-07-05T09:40:03;99029.34;;;22.73;38.26
65897;BME280;52677;50.898;10.854;2022-07-05T09:42:23;99029.22;;;22.35;37.90
65897;BME280;52677;50.898;10.854;2022-07-05T09:44:24;99026.38;;;22.64;37.17
65897;BME280;52677;50.898;10.854;2022-07-05T09:46:30;99029.91;;;22.68;38.46
65897;BME280;52677;50.898;10.854;2022-07-05T09:48:32;99032.41;;;22.79;38.41
65897;BME280;52677;50.898;10.854;2022-07-05T09:50:33;99026.72;;;22.95;37.18
65897;BME280;52677;50.898;10.854;2022-07-05T09:54:35;99017.94;;;23.06;36.73
65897;BME280;52677;50.898;10.854;2022-07-05T09:56:48;99023.34;;;23.13;36.97
65897;BME280;52677;50.898;10.854;2022-07-05T09:58:48;99018.84;;;23.15;37.27
65897;BME280;52677;50.898;10.854;2022-07-05T10:00:49;99023.59;;;23.18;37.12
65897;BME280;52677;50.898;10.854;2022-07-05T10:02:51;99026.50;;;23.15;36.98
65897;BME280;52677;50.898;10.854;2022-07-05T10:07:28;99020.88;;;23.15;36.88
65897;BME280;52677;50.898;10.854;2022-07-05T10:09:28;99022.72;;;23.34;37.39
65897;BME280;52677;50.898;10.854;2022-07-05T10:11:30;99016.94;;;23.50;36.81
65897;BME280;52677;50.898;10.854;2022-07-05T10:13:31;99016.84;;;23.67;36.23
65897;BME280;52677;50.898;10.854;2022-07-05T10:15:35;99014.44;;;23.78;37.53
65897;BME280;52677;50.898;10.854;2022-07-05T10:17:38;99023.63;;;23.69;36.98
65897;BME280;52677;50.898;10.854;2022-07-05T10:19:45;99028.00;;;23.32;36.80
65897;BME280;52677;50.898;10.854;2022-07-05T10:21:47;99009.91;;;23.17;37.35
65897;BME280;52677;50.898;10.854;2022-07-05T10:23:51;99012.19;;;23.22;37.33
65897;BME280;52677;50.898;10.854;2022-07-05T10:25:54;99016.09;;;22.99;37.68
65897;BME280;52677;50.898;10.854;2022-07-05T10:27:57;99006.19;;;22.94;37.73
65897;BME280;52677;50.898;10.854;2022-07-05T10:29:59;99012.41;;;22.73;38.41
65897;BME280;52677;50.898;10.854;2022-07-05T10:32:01;99012.63;;;22.66;38.95
65897;BME280;52677;50.898;10.854;2022-07-05T10:34:02;99006.88;;;22.69;38.26
65897;BME280;52677;50.898;10.854;2022-07-05T10:36:09;99003.63;;;22.84;38.73
65897;BME280;52677;50.898;10.854;2022-07-05T10:38:13;99002.81;;;23.12;38.28
65897;BME280;52677;50.898;10.854;2022-07-05T10:40:15;99004.63;;;23.44;38.09